createdAt,value
2022-10-18T00:02:27.522Z,13.38
2022-10-18T00:05:28.740Z,15.48
2022-10-18T00:08:30.053Z,17.63
2022-10-18T00:11:31.527Z,16.08
2022-10-18T00:14:32.240Z,17.10
2022-10-18T00:17:39.088Z,16.92
2022-10-18T00:20:40.123Z,17.05
2022-10-18T00:23:41.160Z,17.20
2022-10-18T00:26:42.282Z,20.15
2022-10-18T00:29:43.238Z,20.38
2022-10-18T00:32:44.378Z,20.33
2022-10-18T00:35:44.997Z,22.17
2022-10-18T00:38:46.801Z,21.77
2022-10-18T00:41:48.604Z,23.73
2022-10-18T00:44:49.833Z,22.98
2022-10-18T00:48:00.052Z,21.42
2022-10-18T00:51:00.858Z,19.92
2022-10-18T00:54:02.328Z,21.60
2022-10-18T00:57:05.440Z,20.35
2022-10-18T01:00:10.204Z,22.80
2022-10-18T01:03:11.426Z,22.85
2022-10-18T01:06:12.591Z,24.73
2022-10-18T01:09:30.239Z,24.30
2022-10-18T01:16:41.968Z,23.30
2022-10-18T01:20:37.130Z,23.90
2022-10-18T01:24:08.596Z,24.80
2022-10-18T01:27:46.080Z,28.10
2022-10-18T01:31:00.236Z,26.17
2022-10-18T01:34:06.764Z,20.40
2022-10-18T01:37:11.832Z,20.73
2022-10-18T01:40:18.130Z,21.33
2022-10-18T01:43:23.227Z,21.98
2022-10-18T01:46:26.330Z,21.67
2022-10-18T01:49:27.810Z,20.77
2022-10-18T01:52:29.314Z,22.13
2022-10-18T01:56:05.891Z,23.25
2022-10-18T01:59:38.204Z,23.05
2022-10-18T02:03:09.245Z,23.55
2022-10-18T02:06:29.124Z,25.55
2022-10-18T02:09:53.295Z,22.60
2022-10-18T02:12:57.782Z,21.73
2022-10-18T02:16:08.066Z,20.02
2022-10-18T02:19:33.581Z,20.17
2022-10-18T02:22:37.341Z,17.50
2022-10-18T02:25:39.711Z,18.65
2022-10-18T02:28:41.625Z,17.35
2022-10-18T02:31:49.946Z,17.90
2022-10-18T02:35:15.749Z,17.00
2022-10-18T02:38:20.459Z,17.88
2022-10-18T02:41:27.678Z,16.23
2022-10-18T02:44:28.539Z,17.15
2022-10-18T02:47:29.576Z,18.42
2022-10-18T02:50:30.572Z,18.33
2022-10-18T02:53:31.266Z,19.38
2022-10-18T02:56:32.412Z,20.98
2022-10-18T02:59:33.652Z,19.48
2022-10-18T03:02:34.883Z,19.58
2022-10-18T03:05:36.075Z,20.45
2022-10-18T03:08:37.353Z,18.88
2022-10-18T03:11:38.215Z,17.80
2022-10-18T03:14:39.446Z,18.83
2022-10-18T03:17:40.356Z,20.30
2022-10-18T03:20:41.186Z,19.95
2022-10-18T03:23:42.448Z,21.05
2022-10-18T03:26:43.271Z,22.83
2022-10-18T03:29:43.970Z,24.48
2022-10-18T03:32:44.932Z,24.80
2022-10-18T03:35:46.032Z,23.27
2022-10-18T03:38:47.158Z,24.08
2022-10-18T03:41:47.776Z,20.92
2022-10-18T03:44:48.970Z,23.73
2022-10-18T03:47:49.740Z,22.60
2022-10-18T03:50:51.092Z,24.88
2022-10-18T03:53:51.820Z,23.35
2022-10-18T03:56:52.983Z,23.20
2022-10-18T03:59:53.893Z,22.67
2022-10-18T04:02:55.945Z,24.92
2022-10-18T04:05:57.343Z,22.55
2022-10-18T04:08:58.531Z,22.95
2022-10-18T04:11:59.302Z,24.30
2022-10-18T04:15:00.024Z,23.90
2022-10-18T04:18:01.720Z,24.38
2022-10-18T04:21:02.537Z,26.60
2022-10-18T04:24:03.390Z,25.48
2022-10-18T04:27:06.469Z,27.17
2022-10-18T04:30:08.199Z,26.92
2022-10-18T04:33:09.218Z,24.92
2022-10-18T04:36:10.059Z,22.08
2022-10-18T04:39:11.071Z,22.67
2022-10-18T04:42:11.771Z,25.67
2022-10-18T04:45:12.635Z,25.50
2022-10-18T04:48:13.475Z,27.23
2022-10-18T04:51:14.332Z,25.45
2022-10-18T04:54:15.646Z,23.05
2022-10-18T04:57:16.405Z,26.58
2022-10-18T05:00:17.553Z,24.77
2022-10-18T05:03:18.726Z,25.67
2022-10-18T05:06:20.199Z,26.20
2022-10-18T05:09:24.708Z,25.33
2022-10-18T05:12:25.724Z,29.38
2022-10-18T05:15:26.745Z,26.05
2022-10-18T05:18:27.721Z,27.17
2022-10-18T05:21:28.498Z,33.42
2022-10-18T05:24:29.309Z,35.10
2022-10-18T05:27:30.129Z,29.48
2022-10-18T05:30:31.419Z,24.85
2022-10-18T05:33:32.831Z,27.23
2022-10-18T05:36:33.645Z,28.50
2022-10-18T05:39:34.395Z,31.25
2022-10-18T05:42:35.496Z,29.42
2022-10-18T05:45:36.726Z,30.02
2022-10-18T05:48:37.958Z,31.48
2022-10-18T05:51:39.576Z,29.27
2022-10-18T05:54:41.178Z,27.77
2022-10-18T05:57:42.084Z,28.92
2022-10-18T06:00:42.936Z,28.77
2022-10-18T06:03:43.803Z,30.42
2022-10-18T06:06:44.725Z,25.00
2022-10-18T06:09:45.930Z,23.65
2022-10-18T06:12:46.625Z,22.85
2022-10-18T06:15:47.449Z,20.90
2022-10-18T06:18:54.751Z,22.70
2022-10-18T06:21:55.374Z,21.15
2022-10-18T06:24:57.282Z,20.77
2022-10-18T06:27:58.201Z,19.98
2022-10-18T06:30:58.953Z,21.63
2022-10-18T06:33:59.896Z,19.23
2022-10-18T06:37:00.749Z,18.25
2022-10-18T06:40:01.553Z,18.95
2022-10-18T06:43:20.203Z,18.92
2022-10-18T06:46:21.678Z,20.33
2022-10-18T06:49:22.646Z,19.30
2022-10-18T06:52:25.812Z,20.15
2022-10-18T06:55:26.648Z,19.35
2022-10-18T06:58:27.869Z,22.17
2022-10-18T07:01:29.338Z,21.85
2022-10-18T07:04:30.936Z,19.50
2022-10-18T07:07:32.304Z,18.98
2022-10-18T07:10:33.700Z,19.85
2022-10-18T07:13:35.486Z,21.05
2022-10-18T07:16:36.380Z,21.67
2022-10-18T07:19:37.680Z,22.42
2022-10-18T07:22:40.011Z,20.00
2022-10-18T07:25:41.238Z,19.63
2022-10-18T07:28:44.097Z,18.13
2022-10-18T07:31:45.183Z,18.20
2022-10-18T07:34:45.948Z,18.70
2022-10-18T07:37:46.779Z,16.40
2022-10-18T07:40:47.978Z,16.00
2022-10-18T07:43:52.083Z,14.82
2022-10-18T07:46:53.516Z,13.15
2022-10-18T07:49:54.524Z,13.13
2022-10-18T07:52:55.279Z,11.95
2022-10-18T07:56:04.561Z,11.55
2022-10-18T07:59:10.910Z,12.27
2022-10-18T08:02:11.932Z,12.90
2022-10-18T08:05:12.728Z,9.80
2022-10-18T08:08:13.590Z,10.80
2022-10-18T08:11:32.718Z,10.00
2022-10-18T08:14:33.523Z,9.57
2022-10-18T08:17:35.059Z,10.90
2022-10-18T08:20:37.224Z,10.27
2022-10-18T08:23:38.823Z,10.40
2022-10-18T08:26:39.588Z,9.88
2022-10-18T08:29:40.999Z,10.15
2022-10-18T08:32:41.831Z,8.95
2022-10-18T08:35:42.864Z,9.40
2022-10-18T08:38:44.408Z,9.43
2022-10-18T08:42:12.933Z,7.80
2022-10-18T08:45:30.243Z,8.18
2022-10-18T08:48:51.693Z,8.27
2022-10-18T08:55:10.521Z,7.13
2022-10-18T08:58:20.536Z,6.97
2022-10-18T09:01:42.999Z,8.45
2022-10-18T09:05:14.611Z,9.82
2022-10-18T09:08:35.234Z,10.32
2022-10-18T09:11:45.258Z,9.13
2022-10-18T09:15:16.079Z,9.88
2022-10-18T09:18:35.450Z,9.77
2022-10-18T09:21:54.807Z,10.00
2022-10-18T09:25:05.718Z,10.18
2022-10-18T09:28:36.049Z,10.10
2022-10-18T09:31:47.255Z,10.68
2022-10-18T09:35:06.129Z,9.02
2022-10-18T09:38:16.211Z,8.80
2022-10-18T09:41:47.609Z,8.77
2022-10-18T09:44:58.907Z,10.23
2022-10-18T09:48:29.628Z,10.35
2022-10-18T09:51:38.964Z,10.60
2022-10-18T09:54:56.173Z,9.93
2022-10-18T09:58:02.630Z,9.60
2022-10-18T10:01:03.682Z,9.10
2022-10-18T10:04:04.675Z,9.40
2022-10-18T10:07:13.522Z,9.73
2022-10-18T10:10:28.148Z,9.82
2022-10-18T10:13:28.958Z,9.82
2022-10-18T10:16:30.147Z,10.30
2022-10-18T10:19:34.817Z,10.23
2022-10-18T10:22:41.248Z,9.10
2022-10-18T10:25:43.566Z,10.32
2022-10-18T10:28:49.146Z,9.00
2022-10-18T10:32:04.164Z,9.35
2022-10-18T10:35:33.817Z,9.23
2022-10-18T10:38:36.492Z,9.95
2022-10-18T10:41:40.907Z,8.25
2022-10-18T10:44:55.565Z,8.23
2022-10-18T10:48:15.788Z,7.93
2022-10-18T10:51:38.729Z,8.73
2022-10-18T10:54:47.561Z,9.80
2022-10-18T10:57:54.346Z,9.93
2022-10-18T11:00:58.014Z,8.82
2022-10-18T11:04:04.276Z,11.15
2022-10-18T11:07:27.673Z,10.98
2022-10-18T11:10:34.781Z,8.55
2022-10-18T11:14:24.728Z,10.50
2022-10-18T11:18:29.373Z,10.00
2022-10-18T11:21:32.890Z,10.25
2022-10-18T11:24:36.432Z,11.85
2022-10-18T11:27:49.347Z,10.75
2022-10-18T11:31:04.600Z,10.85
2022-10-18T11:34:39.006Z,11.85
2022-10-18T11:38:05.167Z,11.63
2022-10-18T11:41:24.118Z,11.30
2022-10-18T11:44:50.145Z,12.13
2022-10-18T11:48:40.787Z,11.60
2022-10-18T11:52:06.621Z,11.05
2022-10-18T11:55:30.308Z,10.40
2022-10-18T11:58:58.319Z,10.88
2022-10-18T12:02:44.736Z,11.60
2022-10-18T12:05:50.220Z,10.38
2022-10-18T12:08:59.878Z,11.82
2022-10-18T12:12:37.215Z,11.32
2022-10-18T12:15:40.999Z,10.55
2022-10-18T12:19:06.093Z,11.50
2022-10-18T12:22:26.027Z,11.82
2022-10-18T12:25:32.611Z,9.27
2022-10-18T12:28:33.472Z,10.18
2022-10-18T12:31:59.552Z,10.50
2022-10-18T12:35:18.545Z,10.50
2022-10-18T12:38:26.910Z,14.73
2022-10-18T12:41:35.753Z,9.88
2022-10-18T12:44:36.905Z,10.63
2022-10-18T12:47:38.126Z,10.50
2022-10-18T12:50:43.248Z,9.73
2022-10-18T12:54:02.159Z,10.10
2022-10-18T12:57:06.534Z,7.55
2022-10-18T13:00:30.421Z,5.10
2022-10-18T13:03:54.955Z,4.80
2022-10-18T13:06:59.697Z,9.65
2022-10-18T13:10:13.040Z,9.02
2022-10-18T13:13:39.864Z,8.82
2022-10-18T13:17:33.673Z,7.38
2022-10-18T13:21:03.029Z,5.25
2022-10-18T13:25:01.914Z,5.00
2022-10-18T13:28:37.791Z,5.38
2022-10-18T13:32:07.658Z,5.93
2022-10-18T13:35:55.079Z,5.75
2022-10-18T13:39:03.779Z,6.28
2022-10-18T13:42:28.308Z,8.30
2022-10-18T13:45:32.044Z,7.75
2022-10-18T13:48:35.621Z,6.80
2022-10-18T13:52:18.990Z,8.25
2022-10-18T13:56:28.428Z,8.57
2022-10-18T14:00:02.926Z,8.20
2022-10-18T14:03:57.607Z,5.68
2022-10-18T14:07:05.225Z,11.32
2022-10-18T14:10:26.772Z,12.70
2022-10-18T14:13:56.546Z,11.93
2022-10-18T14:17:15.423Z,11.15
2022-10-18T14:20:49.433Z,11.93
2022-10-18T14:24:00.631Z,11.48
2022-10-18T14:27:33.098Z,11.25
2022-10-18T14:30:36.494Z,8.85
2022-10-18T14:33:52.632Z,12.63
2022-10-18T14:36:56.048Z,10.60
2022-10-18T14:39:56.972Z,10.63
2022-10-18T14:43:10.425Z,10.65
2022-10-18T14:46:30.029Z,10.35
2022-10-18T14:49:32.088Z,9.57
2022-10-18T14:52:35.713Z,8.35
2022-10-18T14:55:39.100Z,8.85
2022-10-18T14:58:42.606Z,9.93
2022-10-18T15:01:58.524Z,10.82
2022-10-18T15:05:25.326Z,9.98
2022-10-18T15:08:40.280Z,9.48
2022-10-18T15:11:44.773Z,8.48
2022-10-18T15:14:47.955Z,10.00
2022-10-18T15:17:50.155Z,9.90
2022-10-18T15:21:22.228Z,9.02
2022-10-18T15:24:41.000Z,9.40
2022-10-18T15:27:46.479Z,7.55
2022-10-18T15:30:47.558Z,6.93
2022-10-18T15:33:48.361Z,7.85
2022-10-18T15:36:51.933Z,8.35
2022-10-18T15:40:21.844Z,8.05
2022-10-18T15:43:28.586Z,7.22
2022-10-18T15:49:45.266Z,7.25
2022-10-18T15:52:46.156Z,7.65
2022-10-18T15:56:26.200Z,8.60
2022-10-18T15:59:31.038Z,9.43
2022-10-18T16:02:32.175Z,7.97
2022-10-18T16:05:33.056Z,7.90
2022-10-18T16:08:42.825Z,7.45
2022-10-18T16:11:44.247Z,7.20
2022-10-18T16:14:45.463Z,7.43
2022-10-18T16:17:52.229Z,13.35
2022-10-18T16:20:53.343Z,15.38
2022-10-18T16:23:54.837Z,13.98
2022-10-18T16:26:55.590Z,13.50
2022-10-18T16:29:56.797Z,15.52
2022-10-18T16:32:57.882Z,14.32
2022-10-18T16:35:59.511Z,14.32
2022-10-18T16:39:07.825Z,10.13
2022-10-18T16:42:09.038Z,8.32
2022-10-18T16:45:10.262Z,10.65
2022-10-18T16:48:21.948Z,9.20
2022-10-18T16:51:23.463Z,9.88
2022-10-18T16:54:24.512Z,8.93
2022-10-18T16:57:25.464Z,9.23
2022-10-18T17:00:26.268Z,11.15
2022-10-18T17:03:27.176Z,10.82
2022-10-18T17:06:32.485Z,14.95
2022-10-18T17:09:35.177Z,13.93
2022-10-18T17:12:36.091Z,12.30
2022-10-18T17:15:37.039Z,10.18
2022-10-18T17:18:37.838Z,12.05
2022-10-18T17:21:38.629Z,12.10
2022-10-18T17:24:39.446Z,11.95
2022-10-18T17:27:40.385Z,12.32
2022-10-18T17:30:42.830Z,12.50
2022-10-18T17:33:43.562Z,12.63
2022-10-18T17:36:45.789Z,12.00
2022-10-18T17:39:46.660Z,12.95
2022-10-18T17:42:50.097Z,11.80
2022-10-18T17:45:56.327Z,12.77
2022-10-18T17:48:58.264Z,11.20
2022-10-18T17:52:03.306Z,12.95
2022-10-18T17:55:08.203Z,12.15
2022-10-18T17:58:09.200Z,12.27
2022-10-18T18:01:18.753Z,11.93
2022-10-18T18:04:19.837Z,12.75
2022-10-18T18:07:21.310Z,12.50
2022-10-18T18:10:22.354Z,11.93
2022-10-18T18:13:26.278Z,13.15
2022-10-18T18:16:30.079Z,11.68
2022-10-18T18:19:31.501Z,13.57
2022-10-18T18:22:32.861Z,12.68
2022-10-18T18:25:33.920Z,12.25
2022-10-18T18:28:36.494Z,10.98
2022-10-18T18:31:40.028Z,11.82
2022-10-18T18:34:43.311Z,13.30
2022-10-18T18:37:44.718Z,11.50
2022-10-18T18:40:45.974Z,11.20
2022-10-18T18:44:05.427Z,11.55
2022-10-18T18:47:10.861Z,11.82
2022-10-18T18:50:14.295Z,12.07
2022-10-18T18:53:15.883Z,13.52
2022-10-18T18:56:23.542Z,13.23
2022-10-18T18:59:25.330Z,12.55
2022-10-18T19:02:26.167Z,11.50
2022-10-18T19:05:28.824Z,9.80
2022-10-18T19:08:30.037Z,11.23
2022-10-18T19:11:36.491Z,11.10
2022-10-18T19:14:37.603Z,12.30
2022-10-18T19:17:38.272Z,10.75
2022-10-18T19:20:39.062Z,10.50
2022-10-18T19:23:39.721Z,10.65
2022-10-18T19:26:45.344Z,11.63
2022-10-18T19:29:46.270Z,11.43
2022-10-18T19:32:47.300Z,11.77
2022-10-18T19:35:48.440Z,12.65
2022-10-18T19:38:49.228Z,11.68
2022-10-18T19:41:55.268Z,9.30
2022-10-18T19:44:56.310Z,8.45
2022-10-18T19:47:56.947Z,9.45
2022-10-18T19:51:07.066Z,9.38
2022-10-18T19:54:13.058Z,10.90
2022-10-18T19:57:13.835Z,13.35
2022-10-18T20:00:18.657Z,13.60
2022-10-18T20:03:21.153Z,14.77
2022-10-18T20:06:23.272Z,14.88
2022-10-18T20:09:24.535Z,14.50
2022-10-18T20:12:25.311Z,14.38
2022-10-18T20:15:26.320Z,15.88
2022-10-18T20:18:27.686Z,16.38
2022-10-18T20:21:31.826Z,15.43
2022-10-18T20:24:32.690Z,16.30
2022-10-18T20:27:33.731Z,17.55
2022-10-18T20:30:34.722Z,16.63
2022-10-18T20:33:36.583Z,15.85
2022-10-18T20:36:38.260Z,16.23
2022-10-18T20:39:40.619Z,15.38
2022-10-18T20:42:42.127Z,15.52
2022-10-18T20:45:42.929Z,15.52
2022-10-18T20:48:44.256Z,17.02
2022-10-18T20:51:45.735Z,17.13
2022-10-18T20:54:46.483Z,18.98
2022-10-18T20:57:49.554Z,15.90
2022-10-18T21:00:50.652Z,17.40
2022-10-18T21:03:54.483Z,15.90
2022-10-18T21:06:55.532Z,17.00
2022-10-18T21:09:56.440Z,16.30
2022-10-18T21:12:57.464Z,15.07
2022-10-18T21:15:59.453Z,15.27
2022-10-18T21:19:10.099Z,16.75
2022-10-18T21:22:11.059Z,14.98
2022-10-18T21:25:11.896Z,14.57
2022-10-18T21:28:14.495Z,12.77
2022-10-18T21:31:20.006Z,12.23
2022-10-18T21:34:21.429Z,11.75
2022-10-18T21:37:22.332Z,10.98
2022-10-18T21:40:23.045Z,9.95
2022-10-18T21:43:24.305Z,9.85
2022-10-18T21:46:27.093Z,10.70
2022-10-18T21:49:29.238Z,10.13
2022-10-18T21:52:30.384Z,10.98
2022-10-18T21:55:31.279Z,10.43
2022-10-18T21:58:32.313Z,11.20
2022-10-18T22:01:38.075Z,11.25
2022-10-18T22:04:41.310Z,11.52
2022-10-18T22:07:41.994Z,11.52
2022-10-18T22:10:42.755Z,12.63
2022-10-18T22:13:44.029Z,13.32
2022-10-18T22:16:44.850Z,13.50
2022-10-18T22:19:47.403Z,12.98
2022-10-18T22:22:48.379Z,14.13
2022-10-18T22:25:49.865Z,13.93
2022-10-18T22:28:59.534Z,14.40
2022-10-18T22:32:01.890Z,13.60
2022-10-18T22:35:02.908Z,15.30
2022-10-18T22:38:04.119Z,16.35
2022-10-18T22:41:10.985Z,17.77
2022-10-18T22:44:14.782Z,18.08
2022-10-18T22:47:15.565Z,17.58
2022-10-18T22:50:16.883Z,19.33
2022-10-18T22:53:17.386Z,20.63
2022-10-18T22:56:21.037Z,20.05
2022-10-18T22:59:22.228Z,20.45
2022-10-18T23:02:22.953Z,21.67
2022-10-18T23:05:23.782Z,23.25
2022-10-18T23:08:25.041Z,22.67
2022-10-18T23:11:27.860Z,22.75
2022-10-18T23:14:28.670Z,23.10
2022-10-18T23:17:29.417Z,22.27
2022-10-18T23:20:30.697Z,21.02
2022-10-18T23:23:35.670Z,19.65
2022-10-18T23:26:36.465Z,20.15
2022-10-18T23:29:37.286Z,21.33
2022-10-18T23:32:39.599Z,21.25
2022-10-18T23:35:40.668Z,19.75
2022-10-18T23:38:42.509Z,20.75
2022-10-18T23:41:43.246Z,19.08
2022-10-18T23:44:44.148Z,19.45
2022-10-18T23:47:44.962Z,17.85
2022-10-18T23:50:46.288Z,17.35
2022-10-18T23:53:47.246Z,17.80
2022-10-18T23:56:48.272Z,19.10
2022-10-18T23:59:49.141Z,20.60
